Time;durP1;ratioP1;P1;durP2;ratioP2;P2;SDS_P1;SDS_P2;PMS_P1;PMS_P2;Temp;Humidity;BMP_temperature;BMP_pressure;BME280_temperature;BME280_humidity;BME280_pressure;Samples;Min_cycle;Max_cycle;Signal;HPM_P1;HPM_P2
2022/04/26 03:38:07;;;;;;;;;;;7.70;99.50;;;;;;5031554;28;19916;-73
2022/04/26 03:40:33;;;;;;;;;;;7.70;99.60;;;;;;5031375;28;19916;-73
2022/04/26 03:42:59;;;;;;;;;;;7.60;99.50;;;;;;5031220;28;19913;-73
2022/04/26 03:45:24;;;;;;;;;;;7.60;99.60;;;;;;5030880;28;19921;-74
2022/04/26 03:47:50;;;;;;;;;;;7.60;99.70;;;;;;5031178;28;19963;-72
2022/04/26 03:50:15;;;;;;;;;;;7.60;99.70;;;;;;5031106;28;20385;-72
2022/04/26 03:52:41;;;;;;;;;;;7.60;99.60;;;;;;5031531;28;20208;-73
2022/04/26 03:55:07;;;;;;;;;;;7.60;99.40;;;;;;5031258;28;19953;-71
2022/04/26 03:57:32;;;;;;;;;;;7.50;99.40;;;;;;5031058;28;19909;-74
2022/04/26 03:59:58;;;;;;;;;;;7.50;99.50;;;;;;5031014;28;19913;-73
2022/04/26 04:02:24;;;;;;;;;;;7.50;99.70;;;;;;5030132;28;19928;-72
2022/04/26 04:04:49;;;;;;;;;;;7.50;99.70;;;;;;5031431;28;19912;-73
2022/04/26 04:07:15;;;;;;;;;;;7.60;99.80;;;;;;5030994;28;19909;-72
2022/04/26 04:09:40;;;;;;;;;;;7.60;99.70;;;;;;5030762;28;19966;-72
2022/04/26 04:12:06;;;;;;;;;;;7.50;99.60;;;;;;5031031;28;20259;-72
2022/04/26 04:14:31;;;;;;;;;;;7.60;99.60;;;;;;5031116;28;19909;-73
2022/04/26 04:16:57;;;;;;;;;;;7.60;99.60;;;;;;5030907;28;19992;-73
2022/04/26 04:19:24;;;;;;;;;;;7.50;99.60;;;;;;5031720;28;19931;-74
2022/04/26 04:21:50;;;;;;;;;;;7.60;99.70;;;;;;5030866;28;19915;-72
2022/04/26 04:24:16;;;;;;;;;;;7.60;99.70;;;;;;5030829;28;20265;-74
2022/04/26 04:26:42;;;;;;;;;;;7.60;99.70;;;;;;5029697;28;19917;-73
2022/04/26 04:29:08;;;;;;;;;;;7.60;99.60;;;;;;5031055;28;19947;-73
2022/04/26 04:31:34;;;;;;;;;;;7.70;99.60;;;;;;5031404;28;19909;-74
2022/04/26 04:33:59;;;;;;;;;;;7.60;99.50;;;;;;5029657;28;20047;-73
2022/04/26 04:36:26;;;;;;;;;;;7.60;99.70;;;;;;5030800;28;19967;-73
2022/04/26 04:38:52;;;;;;;;;;;7.60;99.70;;;;;;5030678;28;20409;-73
2022/04/26 04:41:18;;;;;;;;;;;7.60;99.70;;;;;;5030513;28;20136;-73
2022/04/26 04:43:44;;;;;;;;;;;7.70;99.80;;;;;;5030334;28;20243;-73
2022/04/26 04:46:10;;;;;;;;;;;7.80;99.70;;;;;;5030781;28;19980;-74
2022/04/26 04:48:35;;;;;;;;;;;7.90;99.70;;;;;;5029587;28;19920;-73
2022/04/26 04:51:01;;;;;;;;;;;7.90;99.60;;;;;;5029692;28;19936;-72
2022/04/26 04:53:26;;;;;;;;;;;8.10;99.60;;;;;;5030531;28;19909;-73
2022/04/26 04:55:52;;;;;;;;;;;8.10;99.60;;;;;;5030464;28;19912;-74
2022/04/26 04:58:17;;;;;;;;;;;8.30;99.60;;;;;;5034940;28;19948;-74
2022/04/26 05:00:43;;;;;;;;;;;8.30;99.50;;;;;;5034322;28;20267;-73
2022/04/26 05:03:09;;;;;;;;;;;8.20;99.70;;;;;;5034414;28;20357;-74
2022/04/26 05:05:35;;;;;;;;;;;8.20;99.60;;;;;;5034730;28;19983;-73
2022/04/26 05:08:00;;;;;;;;;;;8.20;99.60;;;;;;5034726;28;20327;-74
2022/04/26 05:10:26;;;;;;;;;;;8.20;99.70;;;;;;5034630;28;19978;-72
2022/04/26 05:12:51;;;;;;;;;;;8.20;99.80;;;;;;5034017;28;20529;-72
2022/04/26 05:15:17;;;;;;;;;;;8.20;99.80;;;;;;5034113;28;19927;-73
2022/04/26 05:17:42;;;;;;;;;;;8.30;99.80;;;;;;5033932;28;20083;-73
2022/04/26 05:20:08;;;;;;;;;;;8.40;99.80;;;;;;5033819;28;20374;-72
2022/04/26 05:24:53;;;;;;;;;;;8.40;99.80;;;;;;5034267;28;19995;-74
2022/04/26 05:25:19;;;;;;;;;;;8.50;99.70;;;;;;5033707;28;20353;-73
2022/04/26 05:27:45;;;;;;;;;;;8.60;99.60;;;;;;5033816;28;19909;-74
2022/04/26 05:30:12;;;;;;;;;;;8.70;99.70;;;;;;5033409;28;20370;-74
2022/04/26 05:32:38;;;;;;;;;;;8.80;99.80;;;;;;5032497;28;19920;-72
2022/04/26 05:35:03;;;;;;;;;;;8.90;99.70;;;;;;5032361;28;19913;-74
2022/04/26 05:37:31;;;;;;;;;;;9.00;99.80;;;;;;5033897;28;19939;-75
2022/04/26 05:39:57;;;;;;;;;;;9.00;99.80;;;;;;5031670;28;19979;-75
2022/04/26 05:42:22;;;;;;;;;;;9.10;99.70;;;;;;5032930;28;19915;-75
2022/04/26 05:44:48;;;;;;;;;;;9.00;99.70;;;;;;5032189;28;20003;-74
2022/04/26 05:47:13;;;;;;;;;;;9.00;99.80;;;;;;5033105;28;20314;-74
2022/04/26 05:49:39;;;;;;;;;;;9.00;99.90;;;;;;5033451;28;19913;-74
2022/04/26 05:52:05;;;;;;;;;;;9.10;99.90;;;;;;5031795;28;20045;-75
2022/04/26 05:54:30;;;;;;;;;;;9.20;99.90;;;;;;5033257;28;19909;-75
2022/04/26 05:56:56;;;;;;;;;;;9.40;99.90;;;;;;5033068;28;19936;-74
2022/04/26 05:59:22;;;;;;;;;;;9.40;99.70;;;;;;5033054;28;20091;-75
2022/04/26 06:01:48;;;;;;;;;;;9.50;99.70;;;;;;5033512;28;20008;-75
2022/04/26 06:04:13;;;;;;;;;;;9.60;99.70;;;;;;5033162;28;20343;-75
2022/04/26 06:06:39;;;;;;;;;;;9.60;99.80;;;;;;5032820;28;19913;-74
2022/04/26 06:09:04;;;;;;;;;;;9.70;99.80;;;;;;5031350;28;20012;-75
2022/04/26 06:11:30;;;;;;;;;;;9.80;99.80;;;;;;5032653;28;20039;-75
2022/04/26 06:13:56;;;;;;;;;;;9.90;99.90;;;;;;5032758;28;20549;-75
2022/04/26 06:16:21;;;;;;;;;;;9.90;99.80;;;;;;5033041;28;19928;-74
2022/04/26 06:18:47;;;;;;;;;;;10.00;99.30;;;;;;5032572;28;19920;-75
2022/04/26 06:21:12;;;;;;;;;;;10.10;99.30;;;;;;5032401;28;20285;-74
2022/04/26 06:23:38;;;;;;;;;;;10.20;99.30;;;;;;5031399;28;19913;-75
2022/04/26 06:26:04;;;;;;;;;;;10.30;99.30;;;;;;5032932;28;19988;-75
2022/04/26 06:28:30;;;;;;;;;;;10.40;99.40;;;;;;5032913;28;20343;-75
2022/04/26 06:30:56;;;;;;;;;;;10.50;99.40;;;;;;5031234;28;19916;-75
2022/04/26 06:33:21;;;;;;;;;;;10.60;99.40;;;;;;5032562;28;19916;-72
2022/04/26 06:35:47;;;;;;;;;;;10.60;99.30;;;;;;5047777;28;19967;-75
2022/04/26 06:38:12;;;;;;;;;;;10.70;99.30;;;;;;5031326;28;19909;-75
2022/04/26 06:40:38;;;;;;;;;;;10.80;99.10;;;;;;5048066;28;19916;-75
2022/04/26 06:43:03;;;;;;;;;;;10.90;99.10;;;;;;5031413;28;20326;-74
2022/04/26 06:45:29;;;;;;;;;;;10.90;98.90;;;;;;5032359;28;20397;-75
2022/04/26 06:47:55;;;;;;;;;;;11.10;98.90;;;;;;5032462;28;20278;-74
2022/04/26 06:50:21;;;;;;;;;;;11.10;98.70;;;;;;5031985;28;19971;-74
2022/04/26 06:52:47;;;;;;;;;;;11.20;98.60;;;;;;5032780;28;20329;-74
2022/04/26 06:55:13;;;;;;;;;;;11.40;98.60;;;;;;5032193;28;20494;-74
2022/04/26 06:57:38;;;;;;;;;;;11.80;98.50;;;;;;5032291;28;19913;-73
2022/04/26 07:00:05;;;;;;;;;;;12.20;98.00;;;;;;5032233;28;20455;-73
2022/04/26 07:02:30;;;;;;;;;;;12.90;97.40;;;;;;5032132;28;19909;-73
2022/04/26 07:04:56;;;;;;;;;;;13.40;96.40;;;;;;5032042;28;20047;-74
2022/04/26 07:07:22;;;;;;;;;;;14.00;95.80;;;;;;5032371;28;19943;-73
2022/04/26 07:09:48;;;;;;;;;;;14.60;94.60;;;;;;5030843;28;19924;-74
2022/04/26 07:12:13;;;;;;;;;;;15.10;93.80;;;;;;5031667;28;19913;-75
2022/04/26 07:14:39;;;;;;;;;;;15.60;93.20;;;;;;5031870;28;19944;-75
2022/04/26 07:17:04;;;;;;;;;;;15.90;92.40;;;;;;5031837;28;19908;-74
2022/04/26 07:19:30;;;;;;;;;;;16.20;92.40;;;;;;5031637;28;20334;-74
2022/04/26 07:21:55;;;;;;;;;;;16.50;91.70;;;;;;5031653;28;19967;-75
2022/04/26 07:24:21;;;;;;;;;;;17.00;90.70;;;;;;5031603;28;19913;-74
2022/04/26 07:26:46;;;;;;;;;;;17.50;90.10;;;;;;5030321;28;20015;-75
2022/04/26 07:29:14;;;;;;;;;;;17.90;87.60;;;;;;5031257;28;19913;-74
2022/04/26 07:31:39;;;;;;;;;;;18.50;85.80;;;;;;5031855;28;19905;-75
2022/04/26 07:34:24;;;;;;;;;;;19.00;84.40;;;;;;5031451;28;19920;-75
2022/04/26 07:37:01;;;;;;;;;;;19.70;83.30;;;;;;5031257;28;19909;-75
2022/04/26 07:39:27;;;;;;;;;;;20.30;80.40;;;;;;5030950;28;19925;-74
2022/04/26 07:41:54;;;;;;;;;;;20.70;77.60;;;;;;5031137;28;19913;-74
2022/04/26 07:44:19;;;;;;;;;;;20.70;76.90;;;;;;5031107;28;19960;-75
2022/04/26 07:46:46;;;;;;;;;;;21.30;76.60;;;;;;5031519;28;19936;-75
2022/04/26 07:49:12;;;;;;;;;;;21.60;73.90;;;;;;5031000;28;19948;-75
2022/04/26 07:51:38;;;;;;;;;;;22.00;72.70;;;;;;5031165;28;19913;-73
2022/04/26 07:54:04;;;;;;;;;;;22.30;71.90;;;;;;5046634;28;19987;-74
2022/04/26 07:56:31;;;;;;;;;;;22.80;70.00;;;;;;5030178;28;19909;-74
2022/04/26 07:58:58;;;;;;;;;;;23.00;68.10;;;;;;5031228;28;20422;-74
2022/04/26 08:01:24;;;;;;;;;;;23.40;67.60;;;;;;5031573;28;20409;-75
2022/04/26 08:03:50;;;;;;;;;;;23.90;65.50;;;;;;5030187;28;19909;-74
2022/04/26 08:06:16;;;;;;;;;;;23.70;64.00;;;;;;5031289;28;19976;-74
2022/04/26 08:08:42;;;;;;;;;;;24.00;64.50;;;;;;5030962;28;19983;-74
2022/04/26 08:11:11;;;;;;;;;;;24.60;62.40;;;;;;5031071;28;19912;-75
2022/04/26 08:13:37;;;;;;;;;;;25.00;60.40;;;;;;5031792;28;20002;-73
2022/04/26 08:16:06;;;;;;;;;;;25.30;58.90;;;;;;5031136;28;20052;-75
2022/04/26 08:18:32;;;;;;;;;;;25.60;58.50;;;;;;5030982;28;19910;-74
2022/04/26 08:20:57;;;;;;;;;;;26.00;56.90;;;;;;5030985;28;19908;-74
2022/04/26 08:23:23;;;;;;;;;;;25.40;55.20;;;;;;5029715;28;19913;-74
2022/04/26 08:28:33;;;;;;;;;;;26.00;54.80;;;;;;5031051;28;19939;-74
2022/04/26 08:31:00;;;;;;;;;;;26.60;53.90;;;;;;5032750;28;19913;-73
2022/04/26 08:33:26;;;;;;;;;;;26.90;52.50;;;;;;5034751;28;19978;-75
2022/04/26 08:35:51;;;;;;;;;;;27.30;52.10;;;;;;5034433;28;19928;-75
2022/04/26 08:38:17;;;;;;;;;;;27.70;50.30;;;;;;5033395;28;20330;-74
2022/04/26 08:40:43;;;;;;;;;;;27.90;49.20;;;;;;5035065;28;20038;-74
2022/04/26 08:43:08;;;;;;;;;;;28.10;49.00;;;;;;5034866;28;19976;-75
2022/04/26 08:45:35;;;;;;;;;;;28.60;47.60;;;;;;5034857;28;19909;-75
2022/04/26 08:51:00;;;;;;;;;;;28.70;46.80;;;;;;5034608;28;20262;-74
2022/04/26 08:53:27;;;;;;;;;;;28.90;46.10;;;;;;5034812;28;19913;-74
2022/04/26 08:55:53;;;;;;;;;;;29.00;45.90;;;;;;5033713;28;20012;-74
2022/04/26 08:58:20;;;;;;;;;;;29.40;45.10;;;;;;5035017;28;20319;-75
2022/04/26 09:01:05;;;;;;;;;;;29.20;43.60;;;;;;5034601;28;19921;-75
2022/04/26 09:03:31;;;;;;;;;;;29.60;44.50;;;;;;5034561;28;20342;-75
2022/04/26 09:06:12;;;;;;;;;;;29.60;44.30;;;;;;5034328;28;19909;-76
2022/04/26 09:08:38;;;;;;;;;;;29.60;43.50;;;;;;5034370;28;20380;-76
2022/04/26 09:11:27;;;;;;;;;;;29.10;43.10;;;;;;5049966;28;19909;-74
2022/04/26 09:13:53;;;;;;;;;;;28.70;42.60;;;;;;5034490;28;20385;-75
2022/04/26 09:16:20;;;;;;;;;;;28.80;43.80;;;;;;5034600;28;19905;-75
2022/04/26 09:18:53;;;;;;;;;;;28.00;44.60;;;;;;5034089;28;19909;-75
2022/04/26 09:21:18;;;;;;;;;;;26.90;45.40;;;;;;5034083;28;19924;-75
2022/04/26 09:23:45;;;;;;;;;;;27.80;45.40;;;;;;5034055;28;20239;-74
2022/04/26 09:26:11;;;;;;;;;;;28.00;44.30;;;;;;5033973;28;19913;-76
2022/04/26 09:28:38;;;;;;;;;;;28.70;43.40;;;;;;5034124;28;20253;-74
2022/04/26 09:31:22;;;;;;;;;;;28.70;42.80;;;;;;5033738;28;19936;-75
2022/04/26 09:33:49;;;;;;;;;;;27.50;43.60;;;;;;5032483;28;19935;-74
2022/04/26 09:36:16;;;;;;;;;;;26.70;44.30;;;;;;5033786;28;20004;-74
2022/04/26 09:38:48;;;;;;;;;;;25.80;45.40;;;;;;5033414;28;19909;-73
2022/04/26 09:41:13;;;;;;;;;;;25.60;46.30;;;;;;5033479;28;19925;-74
2022/04/26 09:43:39;;;;;;;;;;;26.30;46.20;;;;;;5048773;28;20046;-73
2022/04/26 09:46:06;;;;;;;;;;;27.40;45.40;;;;;;5033424;28;19988;-74
2022/04/26 09:48:35;;;;;;;;;;;28.00;43.70;;;;;;5033435;28;19967;-74
2022/04/26 09:51:07;;;;;;;;;;;28.50;42.90;;;;;;5033275;28;19920;-75
2022/04/26 09:53:33;;;;;;;;;;;29.20;42.10;;;;;;5033416;28;20251;-75
2022/04/26 09:55:59;;;;;;;;;;;29.50;41.10;;;;;;5033019;28;19909;-75
2022/04/26 09:58:27;;;;;;;;;;;29.30;40.80;;;;;;5049109;28;19905;-75
2022/04/26 10:00:54;;;;;;;;;;;29.80;40.40;;;;;;5033015;28;19941;-75
2022/04/26 10:03:23;;;;;;;;;;;29.90;39.70;;;;;;5032932;28;20398;-75
2022/04/26 10:05:49;;;;;;;;;;;30.30;39.30;;;;;;5032942;28;19972;-75
2022/04/26 10:08:16;;;;;;;;;;;29.80;38.10;;;;;;5033074;28;20347;-75
2022/04/26 10:10:43;;;;;;;;;;;30.10;39.00;;;;;;5033453;28;19920;-75
2022/04/26 10:15:54;;;;;;;;;;;29.60;39.20;;;;;;5033189;28;19919;-75
2022/04/26 10:18:35;;;;;;;;;;;30.50;38.10;;;;;;5031793;28;19999;-75
2022/04/26 10:21:04;;;;;;;;;;;30.40;37.70;;;;;;5032782;28;19970;-76
2022/04/26 10:23:49;;;;;;;;;;;30.50;37.60;;;;;;5032905;28;19971;-75
2022/04/26 10:28:59;;;;;;;;;;;28.10;37.70;;;;;;5033327;28;19916;-74
2022/04/26 10:31:37;;;;;;;;;;;26.90;38.70;;;;;;5032616;28;19913;-74
2022/04/26 10:34:14;;;;;;;;;;;26.40;40.50;;;;;;5032142;28;20013;-74
2022/04/26 10:36:40;;;;;;;;;;;25.60;41.10;;;;;;5032360;28;20121;-73
2022/04/26 10:39:06;;;;;;;;;;;25.30;42.30;;;;;;5032211;28;19909;-74
2022/04/26 10:41:35;;;;;;;;;;;24.90;43.10;;;;;;5031228;28;19967;-74
2022/04/26 10:44:13;;;;;;;;;;;24.60;43.40;;;;;;5031109;28;19916;-75
2022/04/26 10:46:52;;;;;;;;;;;24.00;43.90;;;;;;5032745;28;20532;-74
2022/04/26 10:49:24;;;;;;;;;;;23.20;44.80;;;;;;5032482;28;19913;-73
2022/04/26 10:51:51;;;;;;;;;;;22.80;45.60;;;;;;5032361;28;19913;-75
2022/04/26 10:54:36;;;;;;;;;;;22.90;46.50;;;;;;5031408;28;19909;-74
2022/04/26 10:57:01;;;;;;;;;;;22.90;46.60;;;;;;5032114;28;19991;-74
2022/04/26 10:59:27;;;;;;;;;;;22.40;48.20;;;;;;5031843;28;20000;-73
2022/04/26 11:01:52;;;;;;;;;;;21.70;47.00;;;;;;5032107;28;20329;-74
2022/04/26 11:04:18;;;;;;;;;;;21.70;47.80;;;;;;5032827;28;19927;-74
2022/04/26 11:06:44;;;;;;;;;;;21.60;48.10;;;;;;5031895;28;20503;-74
2022/04/26 11:09:10;;;;;;;;;;;21.30;48.60;;;;;;5032001;28;19913;-74
2022/04/26 11:11:49;;;;;;;;;;;21.20;48.60;;;;;;5047153;28;20254;-74
2022/04/26 11:14:17;;;;;;;;;;;21.20;48.20;;;;;;5031481;28;19923;-74
2022/04/26 11:17:02;;;;;;;;;;;21.10;48.50;;;;;;5030874;28;19909;-74
2022/04/26 11:19:31;;;;;;;;;;;20.90;48.70;;;;;;5031714;28;19935;-74
2022/04/26 11:22:04;;;;;;;;;;;20.70;49.20;;;;;;5031693;28;19909;-75
2022/04/26 11:29:58;;;;;;;;;;;20.10;50.50;;;;;;5031482;28;19927;-74
2022/04/26 11:32:30;;;;;;;;;;;20.10;51.30;;;;;;5031115;28;19996;-73
2022/04/26 11:34:56;;;;;;;;;;;19.90;51.60;;;;;;5031646;28;19955;-74
2022/04/26 11:37:22;;;;;;;;;;;19.80;51.90;;;;;;5031752;28;19909;-73
2022/04/26 11:39:48;;;;;;;;;;;19.70;51.90;;;;;;5029950;28;19932;-76
2022/04/26 11:42:13;;;;;;;;;;;19.60;52.20;;;;;;5030977;28;19970;-75
2022/04/26 11:44:55;;;;;;;;;;;19.60;52.10;;;;;;5031294;28;19920;-74
2022/04/26 11:47:36;;;;;;;;;;;19.60;52.00;;;;;;5039104;28;19904;-75
2022/04/26 11:50:12;;;;;;;;;;;19.40;52.00;;;;;;5029942;28;19924;-75
2022/04/26 11:52:38;;;;;;;;;;;19.20;52.30;;;;;;5031728;28;20027;-75
2022/04/26 11:55:05;;;;;;;;;;;19.30;52.60;;;;;;5031226;28;20386;-74
2022/04/26 11:57:33;;;;;;;;;;;19.40;52.70;;;;;;5031390;28;19916;-74
2022/04/26 11:59:59;;;;;;;;;;;19.50;52.40;;;;;;5031162;28;19995;-75
2022/04/26 12:02:25;;;;;;;;;;;19.40;52.30;;;;;;5031083;28;19991;-74
2022/04/26 12:04:51;;;;;;;;;;;19.40;52.50;;;;;;5031072;28;19905;-73
2022/04/26 12:07:17;;;;;;;;;;;19.30;52.60;;;;;;5036266;28;20304;-75
2022/04/26 12:09:42;;;;;;;;;;;19.50;52.90;;;;;;5035041;28;19940;-75
2022/04/26 12:12:10;;;;;;;;;;;19.60;52.70;;;;;;5033715;28;19913;-75
2022/04/26 12:14:38;;;;;;;;;;;19.60;52.70;;;;;;5035069;28;19909;-75
2022/04/26 12:17:14;;;;;;;;;;;19.80;52.00;;;;;;5035013;28;20317;-75
2022/04/26 12:19:41;;;;;;;;;;;19.90;51.60;;;;;;5035474;28;19909;-74
2022/04/26 12:22:07;;;;;;;;;;;19.80;51.30;;;;;;5035000;28;20055;-74
2022/04/26 12:24:33;;;;;;;;;;;19.60;51.10;;;;;;5034981;28;20375;-74
2022/04/26 12:27:00;;;;;;;;;;;19.50;50.80;;;;;;5035030;28;19913;-74
2022/04/26 12:29:29;;;;;;;;;;;19.40;50.90;;;;;;5034769;28;19917;-74
2022/04/26 12:31:55;;;;;;;;;;;19.60;52.30;;;;;;5034797;28;19931;-74
2022/04/26 12:34:21;;;;;;;;;;;19.70;52.80;;;;;;5035140;28;19901;-75
2022/04/26 12:37:03;;;;;;;;;;;19.60;53.00;;;;;;5034927;28;19909;-75
2022/04/26 12:39:41;;;;;;;;;;;19.40;53.40;;;;;;5034266;28;19921;-75
2022/04/26 12:42:08;;;;;;;;;;;19.20;54.00;;;;;;5034433;28;19909;-75
2022/04/26 12:44:34;;;;;;;;;;;18.90;55.10;;;;;;5049810;28;19909;-74
2022/04/26 12:52:47;;;;;;;;;;;18.70;57.30;;;;;;5034382;28;20039;-75
2022/04/26 12:55:33;;;;;;;;;;;18.70;57.90;;;;;;5035146;28;19919;-75
2022/04/26 12:58:03;;;;;;;;;;;18.60;58.30;;;;;;5034130;28;19913;-74
2022/04/26 13:00:29;;;;;;;;;;;18.60;59.80;;;;;;5034033;28;20338;-74
2022/04/26 13:02:57;;;;;;;;;;;18.60;59.80;;;;;;5034477;28;20019;-73
2022/04/26 13:05:22;;;;;;;;;;;18.40;60.40;;;;;;5034176;28;19943;-75
2022/04/26 13:07:48;;;;;;;;;;;18.20;61.10;;;;;;5034814;28;20334;-73
2022/04/26 13:10:14;;;;;;;;;;;18.10;61.90;;;;;;5033981;28;20254;-74
2022/04/26 13:12:40;;;;;;;;;;;18.00;62.80;;;;;;5033999;28;19937;-75
2022/04/26 13:15:08;;;;;;;;;;;17.90;63.60;;;;;;5032676;28;20350;-75
2022/04/26 13:17:39;;;;;;;;;;;17.80;63.70;;;;;;5024160;28;20008;-75
2022/04/26 13:20:05;;;;;;;;;;;17.70;63.60;;;;;;5043096;28;19905;-75
2022/04/26 13:22:34;;;;;;;;;;;17.60;65.40;;;;;;5034290;28;19908;-74
2022/04/26 13:25:01;;;;;;;;;;;17.60;65.30;;;;;;5033997;28;20244;-75
2022/04/26 13:27:27;;;;;;;;;;;17.60;65.80;;;;;;5033683;28;19916;-74
2022/04/26 13:29:52;;;;;;;;;;;17.50;65.50;;;;;;5033652;28;19913;-74
2022/04/26 13:32:18;;;;;;;;;;;17.50;65.20;;;;;;5033654;28;19913;-75
2022/04/26 13:34:44;;;;;;;;;;;17.50;64.20;;;;;;5033880;28;19909;-74
2022/04/26 13:37:10;;;;;;;;;;;17.50;64.00;;;;;;5033584;28;19970;-74
2022/04/26 13:39:35;;;;;;;;;;;17.50;62.60;;;;;;5033367;28;20274;-76
2022/04/26 13:42:01;;;;;;;;;;;17.50;61.50;;;;;;5033202;28;19921;-76
2022/04/26 13:44:27;;;;;;;;;;;17.50;61.80;;;;;;5032434;28;20410;-74
2022/04/26 13:46:53;;;;;;;;;;;17.50;61.30;;;;;;5033290;28;19905;-74
2022/04/26 13:49:18;;;;;;;;;;;17.50;60.90;;;;;;5033578;28;19924;-75
2022/04/26 13:51:44;;;;;;;;;;;17.50;61.20;;;;;;5033478;28;19909;-75
2022/04/26 13:54:09;;;;;;;;;;;17.60;61.30;;;;;;5048597;28;20002;-74
2022/04/26 13:56:35;;;;;;;;;;;17.60;61.00;;;;;;5032140;28;20252;-75
2022/04/26 13:59:01;;;;;;;;;;;17.70;61.30;;;;;;5033182;28;20341;-75
2022/04/26 14:01:26;;;;;;;;;;;17.60;61.30;;;;;;5033491;28;20398;-75
2022/04/26 14:03:52;;;;;;;;;;;17.60;61.00;;;;;;5033021;28;19909;-75
2022/04/26 14:06:21;;;;;;;;;;;17.30;61.00;;;;;;5048342;28;19928;-75
2022/04/26 14:08:51;;;;;;;;;;;17.20;60.50;;;;;;5031837;28;19909;-75
2022/04/26 14:11:17;;;;;;;;;;;17.30;60.80;;;;;;5032887;28;19949;-75
2022/04/26 14:21:55;;;;;;;;;;;17.60;58.70;;;;;;5032880;28;19923;-76
2022/04/26 14:24:21;;;;;;;;;;;17.70;58.20;;;;;;5032858;28;20004;-75
2022/04/26 14:26:46;;;;;;;;;;;17.70;58.10;;;;;;5032439;28;19963;-75
2022/04/26 14:29:12;;;;;;;;;;;17.80;58.20;;;;;;5031150;28;19917;-75
2022/04/26 14:31:38;;;;;;;;;;;17.80;58.00;;;;;;5032832;28;19916;-76
2022/04/26 14:34:04;;;;;;;;;;;18.00;58.40;;;;;;5032319;28;19913;-75
2022/04/26 14:36:29;;;;;;;;;;;18.00;58.30;;;;;;5032356;28;19909;-76
2022/04/26 14:38:55;;;;;;;;;;;18.00;57.90;;;;;;5030423;28;19913;-74
2022/04/26 14:41:20;;;;;;;;;;;18.10;57.80;;;;;;5031954;28;19913;-75
2022/04/26 14:43:46;;;;;;;;;;;18.10;57.40;;;;;;5031596;28;20188;-75
2022/04/26 14:46:11;;;;;;;;;;;18.10;57.10;;;;;;5032182;28;19940;-76
2022/04/26 14:48:38;;;;;;;;;;;18.10;57.20;;;;;;5032067;28;19975;-75
2022/04/26 14:51:07;;;;;;;;;;;18.10;57.10;;;;;;5031081;28;19971;-76
2022/04/26 14:53:32;;;;;;;;;;;18.10;57.00;;;;;;5032130;28;20405;-75
2022/04/26 14:55:59;;;;;;;;;;;18.00;57.00;;;;;;5032134;28;19904;-74
2022/04/26 14:58:25;;;;;;;;;;;18.00;57.00;;;;;;5032486;28;19963;-75
2022/04/26 15:00:51;;;;;;;;;;;18.00;57.10;;;;;;5031886;28;19909;-75
2022/04/26 15:03:17;;;;;;;;;;;18.00;57.10;;;;;;5030609;28;19944;-74
2022/04/26 15:05:42;;;;;;;;;;;18.10;57.20;;;;;;5032088;28;19938;-76
2022/04/26 15:10:52;;;;;;;;;;;18.00;56.60;;;;;;5031762;28;19920;-74
2022/04/26 15:18:48;;;;;;;;;;;17.90;56.20;;;;;;5032012;28;19924;-75
2022/04/26 15:21:15;;;;;;;;;;;17.80;55.90;;;;;;5031779;28;20283;-75
2022/04/26 15:23:40;;;;;;;;;;;17.80;56.00;;;;;;5031766;28;19909;-75
2022/04/26 15:26:06;;;;;;;;;;;17.90;56.10;;;;;;5023698;28;20197;-74
2022/04/26 15:28:32;;;;;;;;;;;17.90;56.30;;;;;;5032648;28;19947;-74
2022/04/26 15:30:57;;;;;;;;;;;17.90;56.30;;;;;;5032178;28;20330;-74
2022/04/26 15:33:24;;;;;;;;;;;17.90;56.10;;;;;;5030859;28;19996;-74
2022/04/26 15:35:51;;;;;;;;;;;17.70;56.00;;;;;;5031382;28;19998;-74
2022/04/26 15:38:17;;;;;;;;;;;17.70;55.80;;;;;;5031361;28;19909;-75
2022/04/26 15:40:50;;;;;;;;;;;17.70;56.00;;;;;;5030996;28;19917;-75
2022/04/26 15:43:16;;;;;;;;;;;17.80;55.80;;;;;;5031535;28;19960;-75
2022/04/26 15:45:42;;;;;;;;;;;17.80;55.70;;;;;;5031334;28;19940;-76
2022/04/26 15:48:07;;;;;;;;;;;17.70;55.80;;;;;;5030014;28;19984;-75
2022/04/26 15:50:33;;;;;;;;;;;17.70;56.00;;;;;;5029958;28;19921;-76
2022/04/26 15:52:58;;;;;;;;;;;17.80;56.10;;;;;;5031043;28;20007;-75
2022/04/26 15:55:24;;;;;;;;;;;17.70;56.00;;;;;;5031653;28;20307;-76
2022/04/26 15:57:51;;;;;;;;;;;17.60;56.10;;;;;;5030946;28;19909;-75
2022/04/26 16:00:20;;;;;;;;;;;17.70;56.20;;;;;;5031074;28;19920;-74
2022/04/26 16:02:48;;;;;;;;;;;17.70;56.00;;;;;;5031042;28;19974;-74
2022/04/26 16:05:14;;;;;;;;;;;17.70;56.00;;;;;;5031014;28;19944;-75
2022/04/26 16:07:39;;;;;;;;;;;17.60;56.00;;;;;;5030500;28;19905;-75
2022/04/26 16:21:05;;;;;;;;;;;17.20;62.00;;;;;;5031206;28;19920;-75
2022/04/26 16:23:30;;;;;;;;;;;17.10;62.40;;;;;;5030882;28;19920;-75
2022/04/26 16:26:01;;;;;;;;;;;17.10;63.30;;;;;;5030660;28;19909;-74
2022/04/26 16:28:31;;;;;;;;;;;17.10;63.30;;;;;;5031622;28;20235;-76
2022/04/26 16:30:57;;;;;;;;;;;17.20;63.00;;;;;;5030743;28;20362;-75
2022/04/26 16:33:23;;;;;;;;;;;17.10;63.00;;;;;;5029854;28;19919;-74
2022/04/26 16:35:48;;;;;;;;;;;17.10;63.50;;;;;;5030702;28;19917;-76
2022/04/26 16:38:17;;;;;;;;;;;17.10;63.60;;;;;;5029682;28;19984;-75
2022/04/26 16:40:46;;;;;;;;;;;17.10;63.80;;;;;;5030839;28;20022;-76
2022/04/26 16:43:16;;;;;;;;;;;17.00;63.40;;;;;;5031094;28;19913;-75
2022/04/26 16:45:50;;;;;;;;;;;17.00;63.30;;;;;;5029838;28;19909;-76
2022/04/26 16:48:16;;;;;;;;;;;16.90;63.20;;;;;;5029537;28;19920;-75
2022/04/26 16:50:41;;;;;;;;;;;16.80;63.40;;;;;;5030688;28;19913;-75
2022/04/26 16:53:07;;;;;;;;;;;16.70;63.90;;;;;;5034157;28;19912;-75
2022/04/26 16:55:32;;;;;;;;;;;16.60;64.30;;;;;;5034920;28;19947;-76
2022/04/26 16:57:59;;;;;;;;;;;16.70;64.60;;;;;;5034495;28;19996;-75
2022/04/26 17:00:24;;;;;;;;;;;16.70;65.20;;;;;;5034229;28;20059;-76
2022/04/26 17:02:50;;;;;;;;;;;16.70;65.50;;;;;;5034215;28;20007;-76
2022/04/26 17:05:18;;;;;;;;;;;16.70;65.60;;;;;;5034294;28;19909;-75
2022/04/26 17:07:45;;;;;;;;;;;16.60;65.30;;;;;;5034718;28;20338;-75
2022/04/26 17:10:10;;;;;;;;;;;16.50;65.60;;;;;;5033952;28;19912;-76
2022/04/26 17:12:36;;;;;;;;;;;16.50;65.60;;;;;;5034093;28;19923;-75
2022/04/26 17:15:04;;;;;;;;;;;16.60;66.20;;;;;;5032800;28;19909;-76
2022/04/26 17:17:30;;;;;;;;;;;16.50;66.00;;;;;;5034006;28;19959;-75
2022/04/26 17:19:55;;;;;;;;;;;16.50;66.00;;;;;;5034069;28;20357;-76
2022/04/26 17:22:21;;;;;;;;;;;16.50;65.70;;;;;;5034240;28;19904;-76
2022/04/26 17:27:34;;;;;;;;;;;16.50;66.00;;;;;;5033788;28;20111;-75
2022/04/26 17:30:00;;;;;;;;;;;16.40;66.30;;;;;;5032412;28;19913;-75
2022/04/26 17:32:25;;;;;;;;;;;16.40;66.70;;;;;;5033562;28;19984;-75
2022/04/26 17:34:51;;;;;;;;;;;16.50;66.80;;;;;;5033650;28;19908;-75
2022/04/26 17:37:17;;;;;;;;;;;16.50;67.20;;;;;;5034143;28;19901;-74
2022/04/26 17:39:42;;;;;;;;;;;16.40;67.40;;;;;;5033655;28;20429;-75
2022/04/26 17:42:08;;;;;;;;;;;16.40;67.50;;;;;;5033451;28;19909;-75
2022/04/26 17:44:37;;;;;;;;;;;16.40;67.90;;;;;;5032478;28;19913;-75
2022/04/26 17:47:02;;;;;;;;;;;16.30;67.50;;;;;;5048930;28;20254;-75
2022/04/26 17:49:28;;;;;;;;;;;16.20;68.60;;;;;;5032935;28;19916;-75
2022/04/26 17:51:54;;;;;;;;;;;16.10;70.20;;;;;;5033716;28;19913;-73
2022/04/26 17:57:04;;;;;;;;;;;16.10;71.60;;;;;;5033514;28;19920;-75
2022/04/26 17:59:30;;;;;;;;;;;16.00;72.40;;;;;;5032970;28;19910;-74
2022/04/26 18:01:55;;;;;;;;;;;15.90;72.90;;;;;;5033523;28;20264;-74
2022/04/26 18:04:21;;;;;;;;;;;16.00;73.00;;;;;;5032294;28;20283;-75
2022/04/26 18:06:46;;;;;;;;;;;16.00;72.90;;;;;;5033197;28;19987;-75
2022/04/26 18:09:12;;;;;;;;;;;15.80;75.10;;;;;;5033234;28;20350;-76
2022/04/26 18:11:37;;;;;;;;;;;15.70;75.90;;;;;;5033483;28;20305;-75
2022/04/26 18:14:03;;;;;;;;;;;15.60;76.10;;;;;;5032898;28;19920;-75
2022/04/26 18:16:28;;;;;;;;;;;15.70;76.00;;;;;;5033359;28;19947;-75
2022/04/26 18:18:57;;;;;;;;;;;15.70;76.70;;;;;;5032852;28;19912;-75
2022/04/26 18:21:22;;;;;;;;;;;15.60;77.10;;;;;;5033084;28;19909;-75
2022/04/26 18:23:48;;;;;;;;;;;15.50;77.30;;;;;;5031560;28;19916;-76
2022/04/26 18:26:19;;;;;;;;;;;15.40;78.00;;;;;;5032822;28;19913;-74
2022/04/26 18:28:45;;;;;;;;;;;15.40;77.50;;;;;;5033108;28;19912;-75
2022/04/26 18:31:15;;;;;;;;;;;15.20;77.90;;;;;;5031511;28;19935;-75
2022/04/26 18:33:41;;;;;;;;;;;15.30;77.50;;;;;;5032636;28;19947;-75
2022/04/26 18:36:08;;;;;;;;;;;15.20;77.50;;;;;;5032593;28;19929;-75
2022/04/26 18:38:35;;;;;;;;;;;15.20;78.20;;;;;;5032731;28;19916;-76
2022/04/26 18:41:00;;;;;;;;;;;15.20;77.20;;;;;;5036638;28;19917;-75
2022/04/26 18:43:27;;;;;;;;;;;15.10;77.50;;;;;;5043209;28;19963;-74
2022/04/26 18:45:52;;;;;;;;;;;15.10;77.40;;;;;;5042579;28;19909;-74
2022/04/26 18:48:18;;;;;;;;;;;15.10;77.50;;;;;;5041956;28;19909;-76
2022/04/26 18:50:44;;;;;;;;;;;15.10;77.90;;;;;;5041952;28;19943;-75